aviador You're here:

PAPO Decoded Metar

POINT HOPE in AK, USA
Report Time2017-07-24 19:56:00
UTC Time2017-07-24 20:47:04
Flight Rules mvfr MVFR
Wind310° at 07 kt
W.Decomp.*RWY 01: 2.3 kt HW 6.6 kt LCW
W.Rank310° ranks 24
Current wind is below 310° avg. (9.6)
Visibility9999 m
Phenomena:N/A
Clouds:Broken 012 Hf
Broken 022 Hf
Expected CloudBase > 1,200 ft AGL from Temp-Dew spread
Ceiling1,200 ft
Temp08°C (ISA -7)
Dew Point05°C (82% RH)
AAT4.4°C
QNH1011 hPa
Density Alt-630 ft
Elevation20 ft
Report Wrong Elevation
Raw Report
PAPO 241956Z AUTO 31007KT 10SM BKN012 BKN022 08/05 A2985 RMK AO2
SLP108 T00780050=

Extra information for PAPO:More info

Metar Taf Metar & Taf Last 4 Metars F.Rules Stats Wind Profile Meteogram Temp Stats Airport Information Weather charts Add Link Nearby VenuesMetar ALERT Operation Metar Decoded Social comments

AIRNAV info for PAPO